createdAt,value
2022-09-12T06:25:55.607Z,101162.13
2022-09-12T06:28:33.198Z,101170.59
2022-09-12T06:31:12.525Z,101170.91
2022-09-12T06:33:52.203Z,101171.00
2022-09-12T06:36:31.542Z,101173.91
2022-09-12T06:39:11.315Z,101173.09
2022-09-12T06:41:51.567Z,101165.53
2022-09-12T06:44:30.094Z,101175.16
2022-09-12T06:47:07.643Z,101181.38
2022-09-12T06:49:44.628Z,101180.97
2022-09-12T06:52:21.257Z,101179.44
2022-09-12T06:54:58.230Z,101165.53
2022-09-12T06:57:39.214Z,101183.47
2022-09-12T07:00:18.165Z,101183.66
2022-09-12T07:02:58.749Z,101176.75
2022-09-12T07:05:38.086Z,101176.19
2022-09-12T07:08:14.891Z,101175.38
2022-09-12T07:10:52.136Z,101178.47
2022-09-12T07:13:31.674Z,101186.09
2022-09-12T07:16:10.459Z,101190.44
2022-09-12T07:18:47.478Z,101190.72
2022-09-12T07:21:24.729Z,101192.03
2022-09-12T07:24:02.738Z,101194.84
2022-09-12T07:26:41.249Z,101192.88
2022-09-12T07:29:38.028Z,101190.06
2022-09-12T07:32:15.700Z,101196.53
2022-09-12T07:34:52.670Z,101192.72
2022-09-12T07:37:29.801Z,101207.69
2022-09-12T07:40:07.468Z,101208.97
2022-09-12T07:42:44.591Z,101209.66
2022-09-12T07:45:23.961Z,101209.22
2022-09-12T07:48:01.403Z,101216.03
2022-09-12T07:50:43.171Z,101218.28
2022-09-12T07:53:22.220Z,101214.31
2022-09-12T07:55:59.872Z,101207.84
2022-09-12T07:58:39.252Z,101214.59
2022-09-12T08:01:20.981Z,101215.72
2022-09-12T08:04:00.144Z,101207.13
2022-09-12T08:06:39.223Z,101219.00
2022-09-12T08:09:17.843Z,101219.69
2022-09-12T08:11:54.537Z,101211.22
2022-09-12T08:14:32.586Z,101224.19
2022-09-12T08:17:11.953Z,101225.72
2022-09-12T08:19:49.145Z,101226.72
2022-09-12T08:22:26.260Z,101222.19
2022-09-12T08:25:03.306Z,101225.56
2022-09-12T08:27:41.142Z,101230.06
2022-09-12T08:30:18.709Z,101232.16
2022-09-12T08:32:58.333Z,101233.41
2022-09-12T08:35:35.520Z,101240.44
2022-09-12T08:38:12.260Z,101228.97
2022-09-12T08:40:56.490Z,101238.97
2022-09-12T08:43:56.070Z,101227.63
2022-09-12T08:46:42.224Z,101228.47
2022-09-12T08:49:31.442Z,101227.56
2022-09-12T08:52:14.930Z,101229.69
2022-09-12T08:54:52.292Z,101234.81
2022-09-12T08:57:29.380Z,101229.16
2022-09-12T09:00:10.482Z,101225.41
2022-09-12T09:03:23.861Z,101222.50
2022-09-12T09:06:14.410Z,101222.44
2022-09-12T09:09:05.536Z,101234.28
2022-09-12T09:12:00.983Z,101224.50
2022-09-12T09:15:12.564Z,101228.66
2022-09-12T09:17:54.220Z,101230.41
2022-09-12T09:20:39.781Z,101227.53
2022-09-12T09:23:27.041Z,101235.53
2022-09-12T09:26:09.566Z,101232.53
2022-09-12T09:28:51.980Z,101234.44
2022-09-12T09:31:36.501Z,101247.63
2022-09-12T09:34:19.260Z,101238.72
2022-09-12T09:37:03.598Z,101236.94
2022-09-12T09:40:00.490Z,101236.09
2022-09-12T09:42:47.840Z,101238.03
2022-09-12T09:45:29.481Z,101245.38
2022-09-12T09:48:24.981Z,101236.41
2022-09-12T09:51:05.519Z,101240.13
2022-09-12T09:53:48.882Z,101239.53
2022-09-12T09:56:36.391Z,101241.97
2022-09-12T09:59:15.060Z,101240.25
2022-09-12T10:01:55.362Z,101242.47
2022-09-12T10:04:41.246Z,101240.41
2022-09-12T10:07:24.110Z,101236.38
2022-09-12T10:10:20.533Z,101238.94
2022-09-12T10:13:12.471Z,101237.19
2022-09-12T10:16:01.556Z,101244.75
2022-09-12T10:18:43.812Z,101241.28
2022-09-12T10:21:31.581Z,101241.59
2022-09-12T10:24:23.064Z,101243.91
2022-09-12T10:27:02.110Z,101238.88
2022-09-12T10:29:52.630Z,101247.94
2022-09-12T10:32:34.988Z,101243.72
2022-09-12T10:35:21.283Z,101239.97
2022-09-12T10:38:02.741Z,101247.34
2022-09-12T10:40:43.474Z,101248.38
2022-09-12T10:43:29.876Z,101245.78
2022-09-12T16:05:21.822Z,101245.19
2022-09-12T16:07:59.870Z,101255.66
2022-09-12T16:10:36.711Z,101246.88
2022-09-12T16:13:13.840Z,101254.59
2022-09-12T16:15:50.727Z,101248.84
2022-09-12T16:18:28.315Z,101244.28
2022-09-12T16:21:12.632Z,101244.09
2022-09-12T16:23:52.495Z,101243.06
2022-09-12T16:26:29.492Z,101247.41
2022-09-12T16:29:07.286Z,101248.53
2022-09-12T16:31:44.086Z,101253.00
2022-09-12T16:34:22.267Z,101248.91
2022-09-12T16:37:02.190Z,101256.06
2022-09-12T16:39:39.479Z,101247.09
2022-09-12T16:42:16.479Z,101253.75
2022-09-12T16:44:54.667Z,101247.31
2022-09-12T16:47:32.878Z,101243.19
2022-09-12T16:50:12.143Z,101235.69
2022-09-12T16:52:52.805Z,101232.91
2022-09-12T16:55:32.334Z,101233.81
2022-09-12T16:58:10.446Z,101234.41
2022-09-12T17:00:48.182Z,101233.63
2022-09-12T17:03:25.076Z,101229.19
2022-09-12T17:06:03.445Z,101233.78
2022-09-12T17:08:48.008Z,101231.03
2022-09-12T17:11:30.825Z,101235.63
2022-09-12T17:14:11.309Z,101227.75
2022-09-12T17:16:52.271Z,101239.69
2022-09-12T17:19:32.894Z,101233.22
2022-09-12T17:22:10.435Z,101220.84
2022-09-12T17:24:50.255Z,101222.56
2022-09-12T17:27:27.882Z,101230.81
2022-09-12T17:30:05.367Z,101231.69
2022-09-12T17:32:42.949Z,101241.75
2022-09-12T17:35:21.076Z,101240.94
2022-09-12T17:37:58.846Z,101237.16
2022-09-12T17:40:58.426Z,101235.19
2022-09-12T17:43:38.309Z,101233.34
2022-09-12T17:46:15.441Z,101229.13
2022-09-12T17:49:00.671Z,101237.91
2022-09-12T17:51:39.429Z,101234.94
2022-09-12T17:54:19.163Z,101230.00
2022-09-12T17:56:59.670Z,101239.56
2022-09-12T17:59:37.890Z,101242.50
2022-09-12T18:02:14.163Z,101243.66
2022-09-12T18:04:52.172Z,101243.25
2022-09-12T18:07:29.663Z,101240.25
2022-09-12T18:10:07.505Z,101241.38
2022-09-12T18:12:47.653Z,101242.50
2022-09-12T18:15:25.102Z,101249.31
2022-09-12T18:18:02.532Z,101241.66
2022-09-12T18:20:39.982Z,101246.72
2022-09-12T18:23:16.710Z,101232.09
2022-09-12T18:25:59.834Z,101238.84
2022-09-12T18:28:41.728Z,101233.47
2022-09-12T18:31:22.340Z,101241.22
2022-09-12T18:34:06.148Z,101230.91
2022-09-12T18:36:55.929Z,101235.97
2022-09-12T18:39:34.244Z,101228.34
2022-09-12T18:42:11.912Z,101234.13
2022-09-12T18:44:51.576Z,101238.59
2022-09-12T18:47:31.065Z,101228.00
2022-09-12T18:50:10.071Z,101228.63
2022-09-12T18:52:51.274Z,101237.72
2022-09-12T18:55:29.503Z,101228.34
2022-09-12T18:58:06.647Z,101227.44
2022-09-12T19:00:51.119Z,101227.38
2022-09-12T19:03:36.676Z,101231.94
2022-09-12T19:06:17.785Z,101231.16
2022-09-12T19:09:05.154Z,101235.91
2022-09-12T19:11:53.266Z,101231.97
2022-09-12T19:14:31.164Z,101234.03
2022-09-12T19:17:11.515Z,101232.59
2022-09-12T19:19:54.536Z,101226.78
2022-09-12T19:22:39.366Z,101219.75
2022-09-12T19:25:19.249Z,101227.28
